Colorado Star — 9HA2189 — position and weather

sailwx.info

Track history (hours):
 
Tides and Currents Weather Stations Pressure Air Temp Water Temp Dewpoint Dewpoint Depression Visibility Wind Speed Wind Dir Waves Ship Positions

Colorado Star

Last reported at 2014-Nov-19 03:27 UTC. Time now 2014-Nov-22 14:19 UTC.
Position N 54°06' E 004°46'.

Length 128 m; draft 6.1 m.

Type: Ship. MMSI: 248127000.

Date/timePositionNaut miles runAvg speedWind from/ knotsBaromVisibWave heightAir tempDewpointWater temp
2014-Nov-19 03:27N 54°06' E 004°46'1010.8
2014-Nov-19 02:33N 53°57' E 004°50'1111.0
2014-Nov-19 01:32N 53°46' E 004°54'1111.0
2014-Nov-19 00:33N 53°35' E 004°50'1211.2
2014-Nov-18 23:28N 53°24' E 004°42'1010.8
2014-Nov-18 22:32N 53°15' E 004°35'1010.6
2014-Nov-18 21:33N 53°06' E 004°27'1110.4
2014-Nov-18 20:28N 52°56' E 004°18'910.2
2014-Nov-18 19:33N 52°47' E 004°11'1010.0
2014-Nov-18 18:33N 52°38' E 004°06'10 9.8
2014-Nov-18 17:33N 52°30' E 004°16'1111.3
2014-Nov-18 16:34N 52°28' E 004°34'5 5.0
2014-Nov-18 15:33N 52°26' E 004°42'5 4.8
2014-Nov-18 14:33N 52°24' E 004°49'0 0.0
2014-Nov-18 13:32N 52°24' E 004°49'0 0.0
2014-Nov-18 12:32N 52°24' E 004°49'0 0.0
2014-Nov-18 11:32N 52°24' E 004°49'0 0.0
2014-Nov-18 10:32N 52°24' E 004°49'0 0.0
2014-Nov-18 09:32N 52°24' E 004°49'0 0.0
2014-Nov-18 08:32N 52°24' E 004°49'0 0.1
2014-Nov-18 07:32N 52°24' E 004°49'0 0.1
2014-Nov-18 06:32N 52°24' E 004°49'0 0.0
2014-Nov-18 05:32N 52°24' E 004°49'0 0.0
2014-Nov-18 04:32N 52°24' E 004°49'0 0.0
2014-Nov-18 03:32N 52°24' E 004°49'0 0.0
2014-Nov-18 02:32N 52°24' E 004°49'0 0.0
2014-Nov-18 01:32N 52°24' E 004°49'0 0.0
2014-Nov-18 00:32N 52°24' E 004°49'0 0.0
2014-Nov-17 23:32N 52°24' E 004°49'0 0.0
2014-Nov-17 22:32N 52°24' E 004°49'0 0.0
2014-Nov-17 21:32N 52°24' E 004°49'0 0.0
2014-Nov-17 20:32N 52°24' E 004°49'0 0.0
2014-Nov-17 19:29N 52°24' E 004°49'0 0.0
2014-Nov-17 18:32N 52°24' E 004°49'1 1.4
2014-Nov-17 17:33N 52°25' E 004°49'2 1.5
2014-Nov-17 16:31N 52°24' E 004°46'0 0.0
2014-Nov-17 15:31N 52°24' E 004°46'0 0.0
2014-Nov-17 14:31N 52°24' E 004°46'0 0.0
2014-Nov-17 13:31N 52°24' E 004°46'0 0.0
2014-Nov-17 12:31N 52°24' E 004°46'0 0.0
2014-Nov-17 11:31N 52°24' E 004°46'0 0.0
2014-Nov-17 10:31N 52°24' E 004°46'0 0.0
2014-Nov-17 09:31N 52°24' E 004°46'0 0.0
2014-Nov-17 08:31N 52°24' E 004°46'0 0.0
2014-Nov-17 07:31N 52°24' E 004°46'0 0.0
2014-Nov-17 06:31N 52°24' E 004°46'0 0.0
2014-Nov-17 05:31N 52°24' E 004°46'0 0.0
2014-Nov-17 04:31N 52°24' E 004°46'0 0.0
2014-Nov-17 03:31N 52°24' E 004°46'0 0.0
2014-Nov-17 02:31N 52°24' E 004°46'0 0.0
2014-Nov-17 01:31N 52°24' E 004°46'0 0.0
2014-Nov-17 00:31N 52°24' E 004°46'0 0.0
2014-Nov-16 23:31N 52°24' E 004°46'0 0.0
2014-Nov-16 22:31N 52°24' E 004°46'0 0.0
2014-Nov-16 21:31N 52°24' E 004°46'0 0.0
2014-Nov-16 20:31N 52°24' E 004°46'0 0.0
2014-Nov-16 19:28N 52°24' E 004°46'0 0.0
2014-Nov-16 18:31N 52°24' E 004°46'0 0.0
2014-Nov-16 17:33N 52°24' E 004°46'6 5.9
2014-Nov-16 16:34N 52°28' E 004°39'5 5.1
2014-Nov-16 15:34N 52°28' E 004°30'1211.6
2014-Nov-16 14:33N 52°29' E 004°11'5 3.6
2014-Nov-16 13:13N 52°27' E 004°04'0 0.1
2014-Nov-16 12:19N 52°27' E 004°04'0 0.0
2014-Nov-16 11:31N 52°27' E 004°04'0 0.0
2014-Nov-16 10:31N 52°27' E 004°04'0 0.0
2014-Nov-16 09:28N 52°27' E 004°04'0 0.0
2014-Nov-16 08:31N 52°27' E 004°04'0 0.0
2014-Nov-16 07:25N 52°27' E 004°04'0 0.1
2014-Nov-16 06:31N 52°27' E 004°04'0 0.0
2014-Nov-16 05:31N 52°27' E 004°04'0 0.0
2014-Nov-16 04:31N 52°27' E 004°04'0 0.0
2014-Nov-16 03:31N 52°27' E 004°04'0 0.0
2014-Nov-16 02:31N 52°27' E 004°04'0 0.1
2014-Nov-16 01:31N 52°27' E 004°04'0 0.1
2014-Nov-16 00:31N 52°27' E 004°04'0 0.0
2014-Nov-15 23:28N 52°27' E 004°04'0 0.0
2014-Nov-15 22:31N 52°27' E 004°04'0 0.0
2014-Nov-15 21:31N 52°27' E 004°04'0 0.0
2014-Nov-15 20:28N 52°27' E 004°04'0 0.0
2014-Nov-15 19:28N 52°27' E 004°04'0 0.0
2014-Nov-15 18:31N 52°27' E 004°04'0 0.0
2014-Nov-15 17:31N 52°27' E 004°04'0 0.1
2014-Nov-15 16:28N 52°27' E 004°04'0 0.0
2014-Nov-15 15:31N 52°27' E 004°04'0 0.0
2014-Nov-15 14:31N 52°27' E 004°04'0 0.1
2014-Nov-15 13:31N 52°27' E 004°04'0 0.1
2014-Nov-15 12:31N 52°27' E 004°04'0 0.0
2014-Nov-15 11:31N 52°27' E 004°04'0 0.0
2014-Nov-15 10:31N 52°27' E 004°04'4 3.8
2014-Nov-15 09:33N 52°27' E 003°58'1412.4
2014-Nov-15 08:28N 52°22' E 003°38'5512.8
2014-Nov-15 04:12N 51°44' E 002°34'812.0
2014-Nov-15 03:33N 51°38' E 002°26'1211.6
2014-Nov-15 02:33N 51°29' E 002°14'1111.2
2014-Nov-15 01:34N 51°19' E 002°07'1010.3
2014-Nov-15 00:33N 51°11' E 001°56'1111.0
2014-Nov-14 23:33N 51°05' E 001°42'1111.5
2014-Nov-14 22:33N 50°57' E 001°28'  
2014-Nov-12 16:32N 53°34' W 003°38'1312.2
2014-Nov-12 15:28N 53°32' W 003°16'910.1
2014-Nov-12 14:33N 53°28' W 003°03'9 8.9
2014-Nov-12 13:33N 53°19' W 002°57'2 2.3
2014-Nov-12 12:33N 53°18' W 002°54'1 0.0
2014-Nov-10 16:32N 53°17' W 002°52'4 3.7
2014-Nov-10 15:33N 53°19' W 002°57'1 0.8
2014-Nov-10 14:33N 53°20' W 002°57'3 3.5
2014-Nov-10 13:33N 53°23' W 002°60'7 7.4
2014-Nov-10 12:33N 53°30' W 003°06'9 9.3
2014-Nov-10 11:33N 53°30' W 003°21'1 1.1
2014-Nov-10 10:33N 53°31' W 003°20'4 3.8
2014-Nov-10 09:24N 53°28' W 003°25'0 0.0
2014-Nov-10 08:12N 53°28' W 003°26'0 0.1
2014-Nov-10 07:30N 53°28' W 003°26'0 0.1
2014-Nov-10 06:30N 53°28' W 003°26'0 0.1
2014-Nov-10 05:24N 53°28' W 003°26'0 0.0
2014-Nov-10 04:30N 53°28' W 003°26'0 0.0
2014-Nov-10 03:30N 53°28' W 003°26'0 0.0
2014-Nov-10 02:30N 53°28' W 003°26'0 0.0
2014-Nov-10 01:30N 53°28' W 003°26'0 0.0
2014-Nov-10 00:30N 53°28' W 003°26'0 0.1
2014-Nov-09 23:30N 53°28' W 003°26'0 0.0
2014-Nov-09 22:30N 53°28' W 003°26'0 0.0
2014-Nov-09 21:30N 53°28' W 003°26'0 0.0
2014-Nov-09 20:30N 53°28' W 003°26'0 0.1
2014-Nov-09 19:24N 53°28' W 003°26'0 0.0
2014-Nov-09 18:30N 53°28' W 003°26'0 0.0
2014-Nov-09 17:30N 53°28' W 003°26'0 0.0
2014-Nov-09 16:30N 53°28' W 003°26'7 7.1
2014-Nov-09 15:33N 53°31' W 003°37'  
Track history (hours):
 
Tides and Currents Weather Stations Pressure Air Temp Water Temp Dewpoint Dewpoint Depression Visibility Wind Speed Wind Dir Waves Ship Positions

Colorado Star

Last reported at 2014-Nov-19 03:27 UTC. Time now 2014-Nov-22 14:19 UTC.
Position N 54°06' E 004°46'.

Length 128 m; draft 6.1 m.

Type: Ship. MMSI: 248127000.

Date/timePositionNaut miles runAvg speedWind from/ knotsBaromVisibWave heightAir tempDewpointWater temp
2014-Nov-19 03:27N 54°06' E 004°46'1010.8
2014-Nov-19 02:33N 53°57' E 004°50'1111.0
2014-Nov-19 01:32N 53°46' E 004°54'1111.0
2014-Nov-19 00:33N 53°35' E 004°50'1211.2
2014-Nov-18 23:28N 53°24' E 004°42'1010.8
2014-Nov-18 22:32N 53°15' E 004°35'1010.6
2014-Nov-18 21:33N 53°06' E 004°27'1110.4
2014-Nov-18 20:28N 52°56' E 004°18'910.2
2014-Nov-18 19:33N 52°47' E 004°11'1010.0
2014-Nov-18 18:33N 52°38' E 004°06'10 9.8
2014-Nov-18 17:33N 52°30' E 004°16'1111.3
2014-Nov-18 16:34N 52°28' E 004°34'5 5.0
2014-Nov-18 15:33N 52°26' E 004°42'5 4.8
2014-Nov-18 14:33N 52°24' E 004°49'0 0.0
2014-Nov-18 13:32N 52°24' E 004°49'0 0.0
2014-Nov-18 12:32N 52°24' E 004°49'0 0.0
2014-Nov-18 11:32N 52°24' E 004°49'0 0.0
2014-Nov-18 10:32N 52°24' E 004°49'0 0.0
2014-Nov-18 09:32N 52°24' E 004°49'0 0.0
2014-Nov-18 08:32N 52°24' E 004°49'0 0.1
2014-Nov-18 07:32N 52°24' E 004°49'0 0.1
2014-Nov-18 06:32N 52°24' E 004°49'0 0.0
2014-Nov-18 05:32N 52°24' E 004°49'0 0.0
2014-Nov-18 04:32N 52°24' E 004°49'0 0.0
2014-Nov-18 03:32N 52°24' E 004°49'0 0.0
2014-Nov-18 02:32N 52°24' E 004°49'0 0.0
2014-Nov-18 01:32N 52°24' E 004°49'0 0.0
2014-Nov-18 00:32N 52°24' E 004°49'0 0.0
2014-Nov-17 23:32N 52°24' E 004°49'0 0.0
2014-Nov-17 22:32N 52°24' E 004°49'0 0.0
2014-Nov-17 21:32N 52°24' E 004°49'0 0.0
2014-Nov-17 20:32N 52°24' E 004°49'0 0.0
2014-Nov-17 19:29N 52°24' E 004°49'0 0.0
2014-Nov-17 18:32N 52°24' E 004°49'1 1.4
2014-Nov-17 17:33N 52°25' E 004°49'2 1.5
2014-Nov-17 16:31N 52°24' E 004°46'0 0.0
2014-Nov-17 15:31N 52°24' E 004°46'0 0.0
2014-Nov-17 14:31N 52°24' E 004°46'0 0.0
2014-Nov-17 13:31N 52°24' E 004°46'0 0.0
2014-Nov-17 12:31N 52°24' E 004°46'0 0.0
2014-Nov-17 11:31N 52°24' E 004°46'0 0.0
2014-Nov-17 10:31N 52°24' E 004°46'0 0.0
2014-Nov-17 09:31N 52°24' E 004°46'0 0.0
2014-Nov-17 08:31N 52°24' E 004°46'0 0.0
2014-Nov-17 07:31N 52°24' E 004°46'0 0.0
2014-Nov-17 06:31N 52°24' E 004°46'0 0.0
2014-Nov-17 05:31N 52°24' E 004°46'0 0.0
2014-Nov-17 04:31N 52°24' E 004°46'0 0.0
2014-Nov-17 03:31N 52°24' E 004°46'0 0.0
2014-Nov-17 02:31N 52°24' E 004°46'0 0.0
2014-Nov-17 01:31N 52°24' E 004°46'0 0.0
2014-Nov-17 00:31N 52°24' E 004°46'0 0.0
2014-Nov-16 23:31N 52°24' E 004°46'0 0.0
2014-Nov-16 22:31N 52°24' E 004°46'0 0.0
2014-Nov-16 21:31N 52°24' E 004°46'0 0.0
2014-Nov-16 20:31N 52°24' E 004°46'0 0.0
2014-Nov-16 19:28N 52°24' E 004°46'0 0.0
2014-Nov-16 18:31N 52°24' E 004°46'0 0.0
2014-Nov-16 17:33N 52°24' E 004°46'6 5.9
2014-Nov-16 16:34N 52°28' E 004°39'5 5.1
2014-Nov-16 15:34N 52°28' E 004°30'1211.6
2014-Nov-16 14:33N 52°29' E 004°11'5 3.6
2014-Nov-16 13:13N 52°27' E 004°04'0 0.1
2014-Nov-16 12:19N 52°27' E 004°04'0 0.0
2014-Nov-16 11:31N 52°27' E 004°04'0 0.0
2014-Nov-16 10:31N 52°27' E 004°04'0 0.0
2014-Nov-16 09:28N 52°27' E 004°04'0 0.0
2014-Nov-16 08:31N 52°27' E 004°04'0 0.0
2014-Nov-16 07:25N 52°27' E 004°04'0 0.1
2014-Nov-16 06:31N 52°27' E 004°04'0 0.0
2014-Nov-16 05:31N 52°27' E 004°04'0 0.0
2014-Nov-16 04:31N 52°27' E 004°04'0 0.0
2014-Nov-16 03:31N 52°27' E 004°04'0 0.0
2014-Nov-16 02:31N 52°27' E 004°04'0 0.1
2014-Nov-16 01:31N 52°27' E 004°04'0 0.1
2014-Nov-16 00:31N 52°27' E 004°04'0 0.0
2014-Nov-15 23:28N 52°27' E 004°04'0 0.0
2014-Nov-15 22:31N 52°27' E 004°04'0 0.0
2014-Nov-15 21:31N 52°27' E 004°04'0 0.0
2014-Nov-15 20:28N 52°27' E 004°04'0 0.0
2014-Nov-15 19:28N 52°27' E 004°04'0 0.0
2014-Nov-15 18:31N 52°27' E 004°04'0 0.0
2014-Nov-15 17:31N 52°27' E 004°04'0 0.1
2014-Nov-15 16:28N 52°27' E 004°04'0 0.0
2014-Nov-15 15:31N 52°27' E 004°04'0 0.0
2014-Nov-15 14:31N 52°27' E 004°04'0 0.1
2014-Nov-15 13:31N 52°27' E 004°04'0 0.1
2014-Nov-15 12:31N 52°27' E 004°04'0 0.0
2014-Nov-15 11:31N 52°27' E 004°04'0 0.0
2014-Nov-15 10:31N 52°27' E 004°04'4 3.8
2014-Nov-15 09:33N 52°27' E 003°58'1412.4
2014-Nov-15 08:28N 52°22' E 003°38'5512.8
2014-Nov-15 04:12N 51°44' E 002°34'812.0
2014-Nov-15 03:33N 51°38' E 002°26'1211.6
2014-Nov-15 02:33N 51°29' E 002°14'1111.2
2014-Nov-15 01:34N 51°19' E 002°07'1010.3
2014-Nov-15 00:33N 51°11' E 001°56'1111.0
2014-Nov-14 23:33N 51°05' E 001°42'1111.5
2014-Nov-14 22:33N 50°57' E 001°28'  
2014-Nov-12 16:32N 53°34' W 003°38'1312.2
2014-Nov-12 15:28N 53°32' W 003°16'910.1
2014-Nov-12 14:33N 53°28' W 003°03'9 8.9
2014-Nov-12 13:33N 53°19' W 002°57'2 2.3
2014-Nov-12 12:33N 53°18' W 002°54'1 0.0
2014-Nov-10 16:32N 53°17' W 002°52'4 3.7
2014-Nov-10 15:33N 53°19' W 002°57'1 0.8
2014-Nov-10 14:33N 53°20' W 002°57'3 3.5
2014-Nov-10 13:33N 53°23' W 002°60'7 7.4
2014-Nov-10 12:33N 53°30' W 003°06'9 9.3
2014-Nov-10 11:33N 53°30' W 003°21'1 1.1
2014-Nov-10 10:33N 53°31' W 003°20'4 3.8
2014-Nov-10 09:24N 53°28' W 003°25'0 0.0
2014-Nov-10 08:12N 53°28' W 003°26'0 0.1
2014-Nov-10 07:30N 53°28' W 003°26'0 0.1
2014-Nov-10 06:30N 53°28' W 003°26'0 0.1
2014-Nov-10 05:24N 53°28' W 003°26'0 0.0
2014-Nov-10 04:30N 53°28' W 003°26'0 0.0
2014-Nov-10 03:30N 53°28' W 003°26'0 0.0
2014-Nov-10 02:30N 53°28' W 003°26'0 0.0
2014-Nov-10 01:30N 53°28' W 003°26'0 0.0
2014-Nov-10 00:30N 53°28' W 003°26'0 0.1
2014-Nov-09 23:30N 53°28' W 003°26'0 0.0
2014-Nov-09 22:30N 53°28' W 003°26'0 0.0
2014-Nov-09 21:30N 53°28' W 003°26'0 0.0
2014-Nov-09 20:30N 53°28' W 003°26'0 0.1
2014-Nov-09 19:24N 53°28' W 003°26'0 0.0
2014-Nov-09 18:30N 53°28' W 003°26'0 0.0
2014-Nov-09 17:30N 53°28' W 003°26'0 0.0
2014-Nov-09 16:30N 53°28' W 003°26'7 7.1
2014-Nov-09 15:33N 53°31' W 003°37'  

Dump ship's entire track history